sensor_id;sensor_type;location;lat;lon;timestamp;temperature;humidity
20929;DHT22;21895;47.072;15.132;2023-05-10T00:00:39;10.50;99.90
20929;DHT22;21895;47.072;15.132;2023-05-10T00:03:06;10.50;99.90
20929;DHT22;21895;47.072;15.132;2023-05-10T00:05:32;10.40;99.90
20929;DHT22;21895;47.072;15.132;2023-05-10T00:07:59;10.10;99.90
20929;DHT22;21895;47.072;15.132;2023-05-10T00:10:25;9.90;99.90
20929;DHT22;21895;47.072;15.132;2023-05-10T00:12:52;9.80;99.90
20929;DHT22;21895;47.072;15.132;2023-05-10T00:15:19;9.80;99.90
20929;DHT22;21895;47.072;15.132;2023-05-10T00:17:45;9.70;99.90
20929;DHT22;21895;47.072;15.132;2023-05-10T00:20:12;9.70;99.90
20929;DHT22;21895;47.072;15.132;2023-05-10T00:22:38;9.60;99.90
20929;DHT22;21895;47.072;15.132;2023-05-10T00:25:06;9.60;99.90
20929;DHT22;21895;47.072;15.132;2023-05-10T00:27:33;9.70;99.90
20929;DHT22;21895;47.072;15.132;2023-05-10T00:30:00;9.80;99.90
20929;DHT22;21895;47.072;15.132;2023-05-10T00:32:26;9.70;99.90
20929;DHT22;21895;47.072;15.132;2023-05-10T00:34:53;9.60;99.90
20929;DHT22;21895;47.072;15.132;2023-05-10T00:37:19;9.40;99.90
20929;DHT22;21895;47.072;15.132;2023-05-10T00:39:46;9.20;99.90
20929;DHT22;21895;47.072;15.132;2023-05-10T00:42:12;9.00;99.90
20929;DHT22;21895;47.072;15.132;2023-05-10T00:44:39;9.10;99.90
20929;DHT22;21895;47.072;15.132;2023-05-10T00:47:05;9.10;99.90
20929;DHT22;21895;47.072;15.132;2023-05-10T00:49:32;9.10;99.90
20929;DHT22;21895;47.072;15.132;2023-05-10T00:51:58;9.10;99.90
20929;DHT22;21895;47.072;15.132;2023-05-10T00:54:25;9.00;99.90
20929;DHT22;21895;47.072;15.132;2023-05-10T00:56:52;8.90;99.90
20929;DHT22;21895;47.072;15.132;2023-05-10T00:59:19;8.90;99.90
20929;DHT22;21895;47.072;15.132;2023-05-10T01:01:46;8.90;99.90
20929;DHT22;21895;47.072;15.132;2023-05-10T01:04:14;8.90;99.90
20929;DHT22;21895;47.072;15.132;2023-05-10T01:06:41;8.80;99.90
20929;DHT22;21895;47.072;15.132;2023-05-10T01:09:08;8.80;99.90
20929;DHT22;21895;47.072;15.132;2023-05-10T01:11:38;8.70;99.90
20929;DHT22;21895;47.072;15.132;2023-05-10T01:14:06;8.50;99.90
20929;DHT22;21895;47.072;15.132;2023-05-10T01:16:36;8.40;99.90
20929;DHT22;21895;47.072;15.132;2023-05-10T01:19:33;8.40;99.90
20929;DHT22;21895;47.072;15.132;2023-05-10T01:27:19;8.30;99.90
20929;DHT22;21895;47.072;15.132;2023-05-10T01:36:08;8.40;99.90
20929;DHT22;21895;47.072;15.132;2023-05-10T01:39:08;8.60;99.90
20929;DHT22;21895;47.072;15.132;2023-05-10T01:41:49;8.60;99.90
20929;DHT22;21895;47.072;15.132;2023-05-10T01:44:42;8.70;99.90
20929;DHT22;21895;47.072;15.132;2023-05-10T01:47:31;8.70;99.90
20929;DHT22;21895;47.072;15.132;2023-05-10T01:50:15;8.70;99.90
20929;DHT22;21895;47.072;15.132;2023-05-10T01:52:50;8.70;99.90
20929;DHT22;21895;47.072;15.132;2023-05-10T01:55:21;8.80;99.90
20929;DHT22;21895;47.072;15.132;2023-05-10T01:58:00;8.80;99.90
20929;DHT22;21895;47.072;15.132;2023-05-10T02:00:33;8.80;99.90
20929;DHT22;21895;47.072;15.132;2023-05-10T02:03:05;8.80;99.90
20929;DHT22;21895;47.072;15.132;2023-05-10T02:05:35;8.80;99.90
20929;DHT22;21895;47.072;15.132;2023-05-10T02:08:06;8.90;99.90
20929;DHT22;21895;47.072;15.132;2023-05-10T02:10:35;8.90;99.90
20929;DHT22;21895;47.072;15.132;2023-05-10T02:13:02;8.90;99.90
20929;DHT22;21895;47.072;15.132;2023-05-10T02:15:32;8.80;99.90
20929;DHT22;21895;47.072;15.132;2023-05-10T02:18:02;8.70;99.90
20929;DHT22;21895;47.072;15.132;2023-05-10T02:20:32;8.60;99.90
20929;DHT22;21895;47.072;15.132;2023-05-10T02:23:00;8.40;99.90
20929;DHT22;21895;47.072;15.132;2023-05-10T02:25:29;8.20;99.90
20929;DHT22;21895;47.072;15.132;2023-05-10T02:28:01;8.10;99.90
20929;DHT22;21895;47.072;15.132;2023-05-10T02:30:32;8.00;99.90
20929;DHT22;21895;47.072;15.132;2023-05-10T02:33:01;8.00;99.90
20929;DHT22;21895;47.072;15.132;2023-05-10T02:35:31;7.90;99.90
20929;DHT22;21895;47.072;15.132;2023-05-10T02:37:59;7.80;99.90
20929;DHT22;21895;47.072;15.132;2023-05-10T02:40:27;7.80;99.90
20929;DHT22;21895;47.072;15.132;2023-05-10T02:42:56;7.80;99.90
20929;DHT22;21895;47.072;15.132;2023-05-10T02:45:27;7.70;99.90
20929;DHT22;21895;47.072;15.132;2023-05-10T02:47:57;7.50;99.90
20929;DHT22;21895;47.072;15.132;2023-05-10T02:50:27;7.30;99.90
20929;DHT22;21895;47.072;15.132;2023-05-10T02:53:12;7.20;99.90
20929;DHT22;21895;47.072;15.132;2023-05-10T02:55:45;7.20;99.90
20929;DHT22;21895;47.072;15.132;2023-05-10T02:58:16;7.20;99.90
20929;DHT22;21895;47.072;15.132;2023-05-10T03:00:45;7.10;99.90
20929;DHT22;21895;47.072;15.132;2023-05-10T03:03:12;7.10;99.90
20929;DHT22;21895;47.072;15.132;2023-05-10T03:05:38;7.10;99.90
20929;DHT22;21895;47.072;15.132;2023-05-10T03:08:05;7.00;99.90
20929;DHT22;21895;47.072;15.132;2023-05-10T03:10:33;6.90;99.90
20929;DHT22;21895;47.072;15.132;2023-05-10T03:16:45;6.80;99.90
20929;DHT22;21895;47.072;15.132;2023-05-10T03:19:26;6.90;99.90
20929;DHT22;21895;47.072;15.132;2023-05-10T03:22:30;6.90;99.90
20929;DHT22;21895;47.072;15.132;2023-05-10T03:25:00;6.80;99.90
20929;DHT22;21895;47.072;15.132;2023-05-10T03:27:32;6.80;99.90
20929;DHT22;21895;47.072;15.132;2023-05-10T03:30:02;6.90;99.90
20929;DHT22;21895;47.072;15.132;2023-05-10T03:32:31;6.70;99.90
20929;DHT22;21895;47.072;15.132;2023-05-10T03:35:00;6.50;99.90
20929;DHT22;21895;47.072;15.132;2023-05-10T03:37:27;6.40;99.90
20929;DHT22;21895;47.072;15.132;2023-05-10T03:39:53;6.50;99.90
20929;DHT22;21895;47.072;15.132;2023-05-10T03:42:20;6.70;99.90
20929;DHT22;21895;47.072;15.132;2023-05-10T03:44:46;6.80;99.90
20929;DHT22;21895;47.072;15.132;2023-05-10T03:47:15;6.80;99.90
20929;DHT22;21895;47.072;15.132;2023-05-10T03:49:41;6.90;99.90
20929;DHT22;21895;47.072;15.132;2023-05-10T03:52:08;6.90;99.90
20929;DHT22;21895;47.072;15.132;2023-05-10T03:54:34;7.00;99.90
20929;DHT22;21895;47.072;15.132;2023-05-10T03:57:01;7.00;99.90
20929;DHT22;21895;47.072;15.132;2023-05-10T03:59:28;7.00;99.90
20929;DHT22;21895;47.072;15.132;2023-05-10T04:01:55;7.00;99.90
20929;DHT22;21895;47.072;15.132;2023-05-10T04:04:22;7.00;99.90
20929;DHT22;21895;47.072;15.132;2023-05-10T04:06:49;6.80;99.90
20929;DHT22;21895;47.072;15.132;2023-05-10T04:09:15;6.80;99.90
20929;DHT22;21895;47.072;15.132;2023-05-10T04:11:44;6.60;99.90
20929;DHT22;21895;47.072;15.132;2023-05-10T04:14:11;6.70;99.90
20929;DHT22;21895;47.072;15.132;2023-05-10T04:16:37;6.80;99.90
20929;DHT22;21895;47.072;15.132;2023-05-10T04:19:04;6.80;99.90
20929;DHT22;21895;47.072;15.132;2023-05-10T04:21:30;6.80;99.90
20929;DHT22;21895;47.072;15.132;2023-05-10T04:23:57;6.90;99.90
20929;DHT22;21895;47.072;15.132;2023-05-10T04:26:23;7.00;99.90
20929;DHT22;21895;47.072;15.132;2023-05-10T04:28:51;7.20;99.90
20929;DHT22;21895;47.072;15.132;2023-05-10T04:31:17;7.30;99.90
20929;DHT22;21895;47.072;15.132;2023-05-10T04:33:44;7.30;99.90
20929;DHT22;21895;47.072;15.132;2023-05-10T04:36:12;7.40;99.90
20929;DHT22;21895;47.072;15.132;2023-05-10T04:38:38;7.50;99.90
20929;DHT22;21895;47.072;15.132;2023-05-10T04:41:09;7.50;99.90
20929;DHT22;21895;47.072;15.132;2023-05-10T04:43:39;7.70;99.90
20929;DHT22;21895;47.072;15.132;2023-05-10T04:46:06;7.90;99.90
20929;DHT22;21895;47.072;15.132;2023-05-10T04:48:33;8.50;99.90
20929;DHT22;21895;47.072;15.132;2023-05-10T04:50:59;9.50;99.90
20929;DHT22;21895;47.072;15.132;2023-05-10T04:53:26;10.40;99.90
20929;DHT22;21895;47.072;15.132;2023-05-10T04:55:53;11.00;99.90
20929;DHT22;21895;47.072;15.132;2023-05-10T04:58:19;11.10;99.90
20929;DHT22;21895;47.072;15.132;2023-05-10T05:00:46;11.20;99.90
20929;DHT22;21895;47.072;15.132;2023-05-10T05:03:12;11.10;99.90
20929;DHT22;21895;47.072;15.132;2023-05-10T05:05:39;11.10;99.90
20929;DHT22;21895;47.072;15.132;2023-05-10T05:08:05;11.00;99.90
20929;DHT22;21895;47.072;15.132;2023-05-10T05:10:32;11.10;99.90
20929;DHT22;21895;47.072;15.132;2023-05-10T05:12:58;11.20;99.90
20929;DHT22;21895;47.072;15.132;2023-05-10T05:15:25;11.30;99.90
20929;DHT22;21895;47.072;15.132;2023-05-10T05:17:52;11.50;99.90
20929;DHT22;21895;47.072;15.132;2023-05-10T05:20:18;11.90;99.90
20929;DHT22;21895;47.072;15.132;2023-05-10T05:22:45;12.30;99.90
20929;DHT22;21895;47.072;15.132;2023-05-10T05:25:12;12.50;99.90
20929;DHT22;21895;47.072;15.132;2023-05-10T05:27:38;12.70;99.90
20929;DHT22;21895;47.072;15.132;2023-05-10T05:30:07;12.90;99.90
20929;DHT22;21895;47.072;15.132;2023-05-10T05:32:34;13.10;99.90
20929;DHT22;21895;47.072;15.132;2023-05-10T05:35:00;13.10;99.90
20929;DHT22;21895;47.072;15.132;2023-05-10T05:37:27;13.20;99.90
20929;DHT22;21895;47.072;15.132;2023-05-10T05:39:53;13.40;99.90
20929;DHT22;21895;47.072;15.132;2023-05-10T05:42:20;13.50;99.90
20929;DHT22;21895;47.072;15.132;2023-05-10T05:44:47;13.40;99.90
20929;DHT22;21895;47.072;15.132;2023-05-10T05:47:13;13.40;99.90
20929;DHT22;21895;47.072;15.132;2023-05-10T05:49:40;13.50;99.90
20929;DHT22;21895;47.072;15.132;2023-05-10T05:52:06;13.50;99.90
20929;DHT22;21895;47.072;15.132;2023-05-10T05:54:33;13.90;99.90
20929;DHT22;21895;47.072;15.132;2023-05-10T05:57:00;14.00;99.90
20929;DHT22;21895;47.072;15.132;2023-05-10T05:59:27;14.00;99.90
20929;DHT22;21895;47.072;15.132;2023-05-10T06:01:54;14.10;99.90
20929;DHT22;21895;47.072;15.132;2023-05-10T06:04:20;14.10;99.90
20929;DHT22;21895;47.072;15.132;2023-05-10T06:06:47;14.10;99.90
20929;DHT22;21895;47.072;15.132;2023-05-10T06:09:14;14.00;99.90
20929;DHT22;21895;47.072;15.132;2023-05-10T06:11:40;14.40;99.90
20929;DHT22;21895;47.072;15.132;2023-05-10T06:14:07;14.40;99.90
20929;DHT22;21895;47.072;15.132;2023-05-10T06:16:34;14.70;99.90
20929;DHT22;21895;47.072;15.132;2023-05-10T06:19:01;15.10;99.90
20929;DHT22;21895;47.072;15.132;2023-05-10T06:21:28;15.50;99.90
20929;DHT22;21895;47.072;15.132;2023-05-10T06:23:54;15.70;99.90
20929;DHT22;21895;47.072;15.132;2023-05-10T06:26:21;16.00;99.60
20929;DHT22;21895;47.072;15.132;2023-05-10T06:28:47;16.10;98.10
20929;DHT22;21895;47.072;15.132;2023-05-10T06:31:14;15.90;98.00
20929;DHT22;21895;47.072;15.132;2023-05-10T06:33:41;15.50;99.10
20929;DHT22;21895;47.072;15.132;2023-05-10T06:36:08;15.30;99.10
20929;DHT22;21895;47.072;15.132;2023-05-10T06:38:35;15.20;99.70
20929;DHT22;21895;47.072;15.132;2023-05-10T06:41:01;15.10;99.20
20929;DHT22;21895;47.072;15.132;2023-05-10T06:43:27;15.10;99.10
20929;DHT22;21895;47.072;15.132;2023-05-10T06:45:54;15.00;99.40
20929;DHT22;21895;47.072;15.132;2023-05-10T06:48:21;15.20;99.20
20929;DHT22;21895;47.072;15.132;2023-05-10T06:50:47;15.40;99.40
20929;DHT22;21895;47.072;15.132;2023-05-10T06:53:14;15.80;98.20
20929;DHT22;21895;47.072;15.132;2023-05-10T06:55:41;15.90;97.50
20929;DHT22;21895;47.072;15.132;2023-05-10T06:58:07;15.90;97.20
20929;DHT22;21895;47.072;15.132;2023-05-10T07:00:34;16.10;97.30
20929;DHT22;21895;47.072;15.132;2023-05-10T07:03:01;16.30;96.70
20929;DHT22;21895;47.072;15.132;2023-05-10T07:05:27;16.50;97.20
20929;DHT22;21895;47.072;15.132;2023-05-10T07:07:55;16.90;96.90
20929;DHT22;21895;47.072;15.132;2023-05-10T07:10:22;17.20;97.30
20929;DHT22;21895;47.072;15.132;2023-05-10T07:12:48;17.50;97.00
20929;DHT22;21895;47.072;15.132;2023-05-10T07:15:15;17.50;96.30
20929;DHT22;21895;47.072;15.132;2023-05-10T07:17:42;17.80;95.60
20929;DHT22;21895;47.072;15.132;2023-05-10T07:20:12;17.90;95.40
20929;DHT22;21895;47.072;15.132;2023-05-10T07:22:38;18.20;94.70
20929;DHT22;21895;47.072;15.132;2023-05-10T07:25:05;18.30;94.20
20929;DHT22;21895;47.072;15.132;2023-05-10T07:27:32;18.30;94.40
20929;DHT22;21895;47.072;15.132;2023-05-10T07:29:59;18.30;94.70
20929;DHT22;21895;47.072;15.132;2023-05-10T07:32:27;18.40;93.80
20929;DHT22;21895;47.072;15.132;2023-05-10T07:34:54;18.40;93.90
20929;DHT22;21895;47.072;15.132;2023-05-10T07:37:20;18.40;93.30
20929;DHT22;21895;47.072;15.132;2023-05-10T07:39:47;18.20;93.80
20929;DHT22;21895;47.072;15.132;2023-05-10T07:42:13;18.00;93.90
20929;DHT22;21895;47.072;15.132;2023-05-10T07:44:40;17.90;94.30
20929;DHT22;21895;47.072;15.132;2023-05-10T07:47:06;18.00;93.80
20929;DHT22;21895;47.072;15.132;2023-05-10T07:49:33;17.80;94.40
20929;DHT22;21895;47.072;15.132;2023-05-10T07:51:59;17.70;94.00
20929;DHT22;21895;47.072;15.132;2023-05-10T07:54:26;17.90;94.00
20929;DHT22;21895;47.072;15.132;2023-05-10T07:56:52;17.80;93.10
20929;DHT22;21895;47.072;15.132;2023-05-10T07:59:19;18.00;92.90
20929;DHT22;21895;47.072;15.132;2023-05-10T08:01:46;17.90;93.60
20929;DHT22;21895;47.072;15.132;2023-05-10T08:04:12;17.90;93.60
20929;DHT22;21895;47.072;15.132;2023-05-10T08:06:39;17.90;94.20
20929;DHT22;21895;47.072;15.132;2023-05-10T08:09:06;18.10;93.20
20929;DHT22;21895;47.072;15.132;2023-05-10T08:11:32;18.10;93.40
20929;DHT22;21895;47.072;15.132;2023-05-10T08:14:00;18.00;95.00
20929;DHT22;21895;47.072;15.132;2023-05-10T08:16:27;18.00;94.20
20929;DHT22;21895;47.072;15.132;2023-05-10T08:18:54;18.00;93.90
20929;DHT22;21895;47.072;15.132;2023-05-10T08:21:21;18.00;93.20
20929;DHT22;21895;47.072;15.132;2023-05-10T08:23:47;18.00;93.60
20929;DHT22;21895;47.072;15.132;2023-05-10T08:26:14;18.00;93.10
20929;DHT22;21895;47.072;15.132;2023-05-10T08:28:41;17.90;93.00
20929;DHT22;21895;47.072;15.132;2023-05-10T08:31:08;18.00;92.50
20929;DHT22;21895;47.072;15.132;2023-05-10T08:33:34;17.70;92.90
20929;DHT22;21895;47.072;15.132;2023-05-10T08:36:01;17.70;93.00
20929;DHT22;21895;47.072;15.132;2023-05-10T08:38:27;17.70;92.50
20929;DHT22;21895;47.072;15.132;2023-05-10T08:40:55;17.70;92.40
20929;DHT22;21895;47.072;15.132;2023-05-10T08:43:29;17.50;91.80
20929;DHT22;21895;47.072;15.132;2023-05-10T08:45:56;17.20;92.00
20929;DHT22;21895;47.072;15.132;2023-05-10T08:48:29;17.50;91.90
20929;DHT22;21895;47.072;15.132;2023-05-10T08:50:58;17.70;91.30
20929;DHT22;21895;47.072;15.132;2023-05-10T08:53:43;17.80;91.40
20929;DHT22;21895;47.072;15.132;2023-05-10T08:56:10;17.90;91.20
20929;DHT22;21895;47.072;15.132;2023-05-10T08:58:38;18.00;91.50
20929;DHT22;21895;47.072;15.132;2023-05-10T09:01:05;18.40;91.10
20929;DHT22;21895;47.072;15.132;2023-05-10T09:03:32;18.70;91.00
20929;DHT22;21895;47.072;15.132;2023-05-10T09:05:58;18.80;90.50
20929;DHT22;21895;47.072;15.132;2023-05-10T09:08:25;19.00;90.30
20929;DHT22;21895;47.072;15.132;2023-05-10T09:10:53;19.00;90.40
20929;DHT22;21895;47.072;15.132;2023-05-10T09:13:22;19.00;90.60
20929;DHT22;21895;47.072;15.132;2023-05-10T09:15:50;19.20;89.60
20929;DHT22;21895;47.072;15.132;2023-05-10T09:18:17;19.20;88.30
20929;DHT22;21895;47.072;15.132;2023-05-10T09:20:44;19.20;86.70
20929;DHT22;21895;47.072;15.132;2023-05-10T09:23:11;19.10;88.60
20929;DHT22;21895;47.072;15.132;2023-05-10T09:25:37;19.10;89.90
20929;DHT22;21895;47.072;15.132;2023-05-10T09:28:08;19.20;87.90
20929;DHT22;21895;47.072;15.132;2023-05-10T09:30:35;19.20;87.10
20929;DHT22;21895;47.072;15.132;2023-05-10T09:33:02;19.00;87.00
20929;DHT22;21895;47.072;15.132;2023-05-10T09:35:32;19.10;88.10
20929;DHT22;21895;47.072;15.132;2023-05-10T09:38:04;19.30;88.50
20929;DHT22;21895;47.072;15.132;2023-05-10T09:40:31;19.60;85.70
20929;DHT22;21895;47.072;15.132;2023-05-10T09:43:00;19.90;84.60
20929;DHT22;21895;47.072;15.132;2023-05-10T09:45:32;20.00;84.10
20929;DHT22;21895;47.072;15.132;2023-05-10T09:48:04;20.10;86.60
20929;DHT22;21895;47.072;15.132;2023-05-10T09:50:31;20.20;83.40
20929;DHT22;21895;47.072;15.132;2023-05-10T09:52:59;20.30;82.90
20929;DHT22;21895;47.072;15.132;2023-05-10T09:55:42;20.50;82.50
20929;DHT22;21895;47.072;15.132;2023-05-10T09:58:12;20.10;80.40
20929;DHT22;21895;47.072;15.132;2023-05-10T10:00:41;19.90;83.20
20929;DHT22;21895;47.072;15.132;2023-05-10T10:03:17;19.90;79.90
20929;DHT22;21895;47.072;15.132;2023-05-10T10:05:46;19.90;81.00
20929;DHT22;21895;47.072;15.132;2023-05-10T10:08:14;19.90;81.00
20929;DHT22;21895;47.072;15.132;2023-05-10T10:10:42;20.00;80.30
20929;DHT22;21895;47.072;15.132;2023-05-10T10:13:12;19.90;80.00
20929;DHT22;21895;47.072;15.132;2023-05-10T10:15:39;19.80;78.80
20929;DHT22;21895;47.072;15.132;2023-05-10T10:18:06;20.00;77.90
20929;DHT22;21895;47.072;15.132;2023-05-10T10:20:38;20.20;78.10
20929;DHT22;21895;47.072;15.132;2023-05-10T10:23:04;20.40;78.40
20929;DHT22;21895;47.072;15.132;2023-05-10T10:25:31;20.40;77.20
20929;DHT22;21895;47.072;15.132;2023-05-10T10:28:21;20.30;76.90
20929;DHT22;21895;47.072;15.132;2023-05-10T10:31:02;20.30;78.20
20929;DHT22;21895;47.072;15.132;2023-05-10T10:34:29;20.40;75.10
20929;DHT22;21895;47.072;15.132;2023-05-10T10:36:57;20.50;73.50
20929;DHT22;21895;47.072;15.132;2023-05-10T10:39:31;20.40;74.00
20929;DHT22;21895;47.072;15.132;2023-05-10T10:41:58;20.50;73.10
20929;DHT22;21895;47.072;15.132;2023-05-10T10:44:34;20.60;74.30
20929;DHT22;21895;47.072;15.132;2023-05-10T10:47:24;20.80;74.70
20929;DHT22;21895;47.072;15.132;2023-05-10T10:50:06;20.60;74.80
20929;DHT22;21895;47.072;15.132;2023-05-10T10:52:41;20.50;75.90
20929;DHT22;21895;47.072;15.132;2023-05-10T10:55:17;20.60;73.60
20929;DHT22;21895;47.072;15.132;2023-05-10T10:57:55;20.40;73.70
20929;DHT22;21895;47.072;15.132;2023-05-10T11:00:33;20.50;71.10
20929;DHT22;21895;47.072;15.132;2023-05-10T11:03:08;20.60;71.30
20929;DHT22;21895;47.072;15.132;2023-05-10T11:05:50;20.50;71.00
20929;DHT22;21895;47.072;15.132;2023-05-10T11:08:28;20.40;72.60
20929;DHT22;21895;47.072;15.132;2023-05-10T11:11:04;20.70;74.10
20929;DHT22;21895;47.072;15.132;2023-05-10T11:13:43;20.80;70.30
20929;DHT22;21895;47.072;15.132;2023-05-10T11:16:19;21.00;73.00
20929;DHT22;21895;47.072;15.132;2023-05-10T11:19:04;21.20;72.20
20929;DHT22;21895;47.072;15.132;2023-05-10T11:21:33;21.30;71.50
20929;DHT22;21895;47.072;15.132;2023-05-10T11:24:15;21.30;75.90
20929;DHT22;21895;47.072;15.132;2023-05-10T11:26:44;21.30;74.50
20929;DHT22;21895;47.072;15.132;2023-05-10T11:29:12;21.20;70.80
20929;DHT22;21895;47.072;15.132;2023-05-10T11:31:43;21.10;72.30
20929;DHT22;21895;47.072;15.132;2023-05-10T11:34:11;20.90;72.40
20929;DHT22;21895;47.072;15.132;2023-05-10T11:36:40;20.80;70.50
20929;DHT22;21895;47.072;15.132;2023-05-10T11:39:06;20.80;74.10
20929;DHT22;21895;47.072;15.132;2023-05-10T11:41:33;20.90;72.40
20929;DHT22;21895;47.072;15.132;2023-05-10T11:44:00;20.70;68.90
20929;DHT22;21895;47.072;15.132;2023-05-10T11:46:27;21.00;68.20
20929;DHT22;21895;47.072;15.132;2023-05-10T11:49:03;21.20;72.40
20929;DHT22;21895;47.072;15.132;2023-05-10T11:51:35;21.20;68.20
20929;DHT22;21895;47.072;15.132;2023-05-10T11:54:10;21.20;65.90
20929;DHT22;21895;47.072;15.132;2023-05-10T11:56:38;21.00;68.70
20929;DHT22;21895;47.072;15.132;2023-05-10T11:59:06;21.00;68.00
20929;DHT22;21895;47.072;15.132;2023-05-10T12:01:34;20.80;69.60
20929;DHT22;21895;47.072;15.132;2023-05-10T12:04:01;20.40;69.10
20929;DHT22;21895;47.072;15.132;2023-05-10T12:06:30;20.40;71.40
20929;DHT22;21895;47.072;15.132;2023-05-10T12:08:58;20.40;72.00
20929;DHT22;21895;47.072;15.132;2023-05-10T12:11:26;20.50;69.20
20929;DHT22;21895;47.072;15.132;2023-05-10T12:13:54;20.40;69.60
20929;DHT22;21895;47.072;15.132;2023-05-10T12:16:24;20.40;69.50
20929;DHT22;21895;47.072;15.132;2023-05-10T12:18:56;20.40;69.40
20929;DHT22;21895;47.072;15.132;2023-05-10T12:21:25;20.40;70.50
20929;DHT22;21895;47.072;15.132;2023-05-10T12:24:00;20.40;67.60
20929;DHT22;21895;47.072;15.132;2023-05-10T12:26:28;20.30;67.90
20929;DHT22;21895;47.072;15.132;2023-05-10T12:29:17;20.40;66.70
20929;DHT22;21895;47.072;15.132;2023-05-10T12:31:55;20.50;67.90
20929;DHT22;21895;47.072;15.132;2023-05-10T12:34:33;20.80;65.20
20929;DHT22;21895;47.072;15.132;2023-05-10T12:37:03;21.00;67.00
20929;DHT22;21895;47.072;15.132;2023-05-10T12:39:45;21.00;71.00
20929;DHT22;21895;47.072;15.132;2023-05-10T12:42:12;21.10;67.60
20929;DHT22;21895;47.072;15.132;2023-05-10T12:44:39;21.00;64.30
20929;DHT22;21895;47.072;15.132;2023-05-10T12:47:05;20.80;63.50
20929;DHT22;21895;47.072;15.132;2023-05-10T12:49:32;20.80;64.50
20929;DHT22;21895;47.072;15.132;2023-05-10T12:51:59;21.00;66.10
20929;DHT22;21895;47.072;15.132;2023-05-10T12:54:26;21.10;67.00
20929;DHT22;21895;47.072;15.132;2023-05-10T12:56:53;20.90;65.90
20929;DHT22;21895;47.072;15.132;2023-05-10T12:59:20;20.80;66.40
20929;DHT22;21895;47.072;15.132;2023-05-10T13:01:46;20.90;67.10
20929;DHT22;21895;47.072;15.132;2023-05-10T13:04:13;21.00;66.20
20929;DHT22;21895;47.072;15.132;2023-05-10T13:06:39;21.00;67.90
20929;DHT22;21895;47.072;15.132;2023-05-10T13:09:06;21.00;66.70
20929;DHT22;21895;47.072;15.132;2023-05-10T13:11:32;20.90;69.40
20929;DHT22;21895;47.072;15.132;2023-05-10T13:13:59;20.70;70.50
20929;DHT22;21895;47.072;15.132;2023-05-10T13:16:26;20.30;69.90
20929;DHT22;21895;47.072;15.132;2023-05-10T13:18:52;20.30;69.80
20929;DHT22;21895;47.072;15.132;2023-05-10T13:21:19;20.20;70.30
20929;DHT22;21895;47.072;15.132;2023-05-10T13:23:45;20.30;70.90
20929;DHT22;21895;47.072;15.132;2023-05-10T13:26:12;20.40;72.90
20929;DHT22;21895;47.072;15.132;2023-05-10T13:28:39;20.30;74.70
20929;DHT22;21895;47.072;15.132;2023-05-10T13:31:06;20.20;74.50
20929;DHT22;21895;47.072;15.132;2023-05-10T13:33:33;19.90;75.80
20929;DHT22;21895;47.072;15.132;2023-05-10T13:35:59;19.70;77.00
20929;DHT22;21895;47.072;15.132;2023-05-10T13:38:26;19.60;77.40
20929;DHT22;21895;47.072;15.132;2023-05-10T13:40:52;19.40;78.90
20929;DHT22;21895;47.072;15.132;2023-05-10T13:43:19;19.10;80.00
20929;DHT22;21895;47.072;15.132;2023-05-10T13:45:46;19.10;80.20
20929;DHT22;21895;47.072;15.132;2023-05-10T13:48:12;18.90;81.60
20929;DHT22;21895;47.072;15.132;2023-05-10T13:50:39;18.80;82.60
20929;DHT22;21895;47.072;15.132;2023-05-10T13:53:06;18.70;83.80
20929;DHT22;21895;47.072;15.132;2023-05-10T13:55:32;18.50;84.10
20929;DHT22;21895;47.072;15.132;2023-05-10T13:57:59;18.50;85.60
20929;DHT22;21895;47.072;15.132;2023-05-10T14:00:26;18.30;85.40
20929;DHT22;21895;47.072;15.132;2023-05-10T14:02:53;18.20;85.70
20929;DHT22;21895;47.072;15.132;2023-05-10T14:05:20;18.10;86.00
20929;DHT22;21895;47.072;15.132;2023-05-10T14:07:51;18.00;86.80
20929;DHT22;21895;47.072;15.132;2023-05-10T14:10:18;18.00;88.50
20929;DHT22;21895;47.072;15.132;2023-05-10T14:12:45;18.00;87.90
20929;DHT22;21895;47.072;15.132;2023-05-10T14:15:11;18.00;87.80
20929;DHT22;21895;47.072;15.132;2023-05-10T14:17:38;18.00;88.30
20929;DHT22;21895;47.072;15.132;2023-05-10T14:20:05;17.90;88.00
20929;DHT22;21895;47.072;15.132;2023-05-10T14:22:33;17.80;87.40
20929;DHT22;21895;47.072;15.132;2023-05-10T14:24:59;17.80;88.30
20929;DHT22;21895;47.072;15.132;2023-05-10T14:27:26;17.90;87.10
20929;DHT22;21895;47.072;15.132;2023-05-10T14:29:53;17.90;88.10
20929;DHT22;21895;47.072;15.132;2023-05-10T14:32:19;17.90;85.70
20929;DHT22;21895;47.072;15.132;2023-05-10T14:34:46;17.90;85.50
20929;DHT22;21895;47.072;15.132;2023-05-10T14:37:13;17.80;85.50
20929;DHT22;21895;47.072;15.132;2023-05-10T14:39:41;17.70;87.00
20929;DHT22;21895;47.072;15.132;2023-05-10T14:42:08;17.70;87.60
20929;DHT22;21895;47.072;15.132;2023-05-10T14:44:35;17.70;87.90
20929;DHT22;21895;47.072;15.132;2023-05-10T14:47:01;17.80;86.70
20929;DHT22;21895;47.072;15.132;2023-05-10T14:49:28;17.80;85.40
20929;DHT22;21895;47.072;15.132;2023-05-10T14:51:55;17.70;87.20
20929;DHT22;21895;47.072;15.132;2023-05-10T14:54:21;17.80;86.60
20929;DHT22;21895;47.072;15.132;2023-05-10T14:56:48;17.70;87.00
20929;DHT22;21895;47.072;15.132;2023-05-10T14:59:15;17.60;87.50
20929;DHT22;21895;47.072;15.132;2023-05-10T15:01:42;17.60;87.90
20929;DHT22;21895;47.072;15.132;2023-05-10T15:04:18;17.60;88.80
20929;DHT22;21895;47.072;15.132;2023-05-10T15:06:45;17.50;88.20
20929;DHT22;21895;47.072;15.132;2023-05-10T15:09:12;17.50;88.30
20929;DHT22;21895;47.072;15.132;2023-05-10T15:11:38;17.60;88.20
20929;DHT22;21895;47.072;15.132;2023-05-10T15:14:05;17.70;87.00
20929;DHT22;21895;47.072;15.132;2023-05-10T15:16:31;17.80;87.90
20929;DHT22;21895;47.072;15.132;2023-05-10T15:19:01;18.00;87.30
20929;DHT22;21895;47.072;15.132;2023-05-10T15:21:28;18.00;87.40
20929;DHT22;21895;47.072;15.132;2023-05-10T15:23:55;18.00;87.90
20929;DHT22;21895;47.072;15.132;2023-05-10T15:26:21;18.00;87.30
20929;DHT22;21895;47.072;15.132;2023-05-10T15:28:48;18.00;86.70
20929;DHT22;21895;47.072;15.132;2023-05-10T15:31:14;18.00;86.90
20929;DHT22;21895;47.072;15.132;2023-05-10T15:33:41;18.00;87.90
20929;DHT22;21895;47.072;15.132;2023-05-10T15:36:07;18.00;86.70
20929;DHT22;21895;47.072;15.132;2023-05-10T15:38:34;18.00;86.30
20929;DHT22;21895;47.072;15.132;2023-05-10T15:41:00;18.00;87.60
20929;DHT22;21895;47.072;15.132;2023-05-10T15:43:27;18.10;87.30
20929;DHT22;21895;47.072;15.132;2023-05-10T15:45:53;18.10;87.40